createdAt,value
2022-10-06T00:02:07.313Z,13.19
2022-10-06T00:05:13.374Z,13.10
2022-10-06T00:08:15.988Z,13.11
2022-10-06T00:11:19.111Z,13.11
2022-10-06T00:14:21.574Z,13.09
2022-10-06T00:17:24.499Z,13.06
2022-10-06T00:20:27.657Z,13.03
2022-10-06T00:23:31.656Z,13.00
2022-10-06T00:26:35.020Z,13.01
2022-10-06T00:29:37.947Z,13.01
2022-10-06T00:32:40.618Z,12.98
2022-10-06T00:35:44.829Z,12.99
2022-10-06T00:38:48.018Z,12.98
2022-10-06T00:41:50.918Z,13.01
2022-10-06T00:44:54.183Z,12.98
2022-10-06T00:48:02.602Z,13.01
2022-10-06T00:51:05.913Z,12.97
2022-10-06T00:54:09.180Z,12.96
2022-10-06T00:57:13.008Z,12.94
2022-10-06T01:00:16.371Z,12.88
2022-10-06T01:03:24.488Z,12.87
2022-10-06T01:06:27.793Z,12.87
2022-10-06T01:09:31.610Z,12.86
2022-10-06T01:12:35.091Z,12.83
2022-10-06T01:15:43.097Z,12.81
2022-10-06T01:18:47.801Z,12.79
2022-10-06T01:21:53.518Z,12.71
2022-10-06T01:24:56.911Z,12.71
2022-10-06T01:28:02.008Z,12.64
2022-10-06T01:31:06.199Z,12.59
2022-10-06T01:34:10.321Z,12.59
2022-10-06T01:37:13.877Z,12.57
2022-10-06T01:40:16.588Z,12.58
2022-10-06T01:43:21.102Z,12.56
2022-10-06T01:46:23.648Z,12.51
2022-10-06T01:49:26.818Z,12.47
2022-10-06T01:52:29.349Z,12.42
2022-10-06T01:55:32.273Z,12.38
2022-10-06T01:58:35.154Z,12.34
2022-10-06T02:01:38.222Z,12.32
2022-10-06T02:04:40.964Z,12.27
2022-10-06T02:07:43.910Z,12.22
2022-10-06T02:10:48.786Z,12.18
2022-10-06T02:13:52.648Z,12.21
2022-10-06T02:16:55.846Z,12.18
2022-10-06T02:19:58.522Z,12.16
2022-10-06T02:23:02.507Z,12.14
2022-10-06T02:26:06.722Z,12.10
2022-10-06T02:29:09.807Z,12.03
2022-10-06T02:32:12.440Z,12.02
2022-10-06T02:35:16.702Z,11.98
2022-10-06T02:38:19.573Z,11.94
2022-10-06T02:41:22.317Z,11.93
2022-10-06T02:44:25.334Z,11.91
2022-10-06T02:47:28.320Z,11.89
2022-10-06T02:50:30.915Z,11.83
2022-10-06T02:53:34.624Z,11.80
2022-10-06T02:56:37.997Z,11.79
2022-10-06T02:59:40.688Z,11.79
2022-10-06T03:02:43.770Z,11.79
2022-10-06T03:05:46.747Z,11.76
2022-10-06T03:09:01.535Z,11.70
2022-10-06T03:12:04.825Z,11.67
2022-10-06T03:15:08.518Z,11.66
2022-10-06T03:18:12.599Z,11.65
2022-10-06T03:21:15.545Z,11.73
2022-10-06T03:24:18.433Z,11.70
2022-10-06T03:27:21.669Z,11.62
2022-10-06T03:30:25.111Z,11.60
2022-10-06T03:33:27.832Z,11.61
2022-10-06T03:36:32.980Z,11.55
2022-10-06T03:39:36.320Z,11.55
2022-10-06T03:42:39.261Z,11.50
2022-10-06T03:45:41.972Z,11.58
2022-10-06T03:48:44.739Z,11.53
2022-10-06T03:51:47.641Z,11.57
2022-10-06T03:54:51.265Z,11.54
2022-10-06T03:57:57.251Z,11.49
2022-10-06T04:01:25.992Z,11.46
2022-10-06T04:04:29.495Z,11.45
2022-10-06T04:07:33.956Z,11.47
2022-10-06T04:10:37.145Z,11.46
2022-10-06T04:13:46.592Z,11.43
2022-10-06T04:16:51.086Z,11.42
2022-10-06T04:19:53.895Z,11.44
2022-10-06T04:22:56.888Z,11.43
2022-10-06T04:26:06.334Z,11.39
2022-10-06T04:29:09.307Z,11.37
2022-10-06T04:32:11.918Z,11.34
2022-10-06T04:35:15.396Z,11.32
2022-10-06T04:38:18.117Z,11.31
2022-10-06T04:41:21.662Z,11.31
2022-10-06T04:44:24.416Z,11.30
2022-10-06T04:47:28.501Z,11.30
2022-10-06T04:50:31.036Z,11.26
2022-10-06T04:53:39.526Z,11.27
2022-10-06T04:56:42.187Z,11.26
2022-10-06T05:00:07.946Z,11.26
2022-10-06T05:03:14.617Z,11.21
2022-10-06T05:06:21.311Z,11.24
2022-10-06T05:09:24.069Z,11.25
2022-10-06T05:12:31.256Z,11.26
2022-10-06T05:15:33.921Z,11.31
2022-10-06T05:18:37.050Z,11.34
2022-10-06T05:21:40.536Z,11.38
2022-10-06T05:24:43.824Z,11.40
2022-10-06T05:27:47.397Z,11.51
2022-10-06T05:31:01.238Z,11.58
2022-10-06T05:34:07.867Z,11.80
2022-10-06T05:37:11.079Z,11.82
2022-10-06T05:40:14.383Z,11.87
2022-10-06T05:43:18.219Z,11.97
2022-10-06T05:46:28.287Z,12.10
2022-10-06T05:49:31.709Z,12.23
2022-10-06T05:52:34.395Z,12.37
2022-10-06T05:55:37.559Z,12.48
2022-10-06T05:58:42.852Z,12.59
2022-10-06T06:01:47.112Z,12.67
2022-10-06T06:04:50.562Z,12.75
2022-10-06T06:07:53.771Z,12.82
2022-10-06T06:11:05.284Z,13.03
2022-10-06T06:14:13.014Z,12.96
2022-10-06T06:17:15.874Z,12.97
2022-10-06T06:20:19.185Z,13.14
2022-10-06T06:23:22.881Z,13.11
2022-10-06T06:26:28.067Z,13.05
2022-10-06T06:29:30.977Z,13.10
2022-10-06T06:32:33.807Z,13.19
2022-10-06T06:35:37.521Z,13.16
2022-10-06T06:38:40.341Z,13.20
2022-10-06T06:41:46.244Z,13.21
2022-10-06T06:44:49.594Z,13.29
2022-10-06T06:47:53.327Z,13.34
2022-10-06T06:51:00.583Z,13.33
2022-10-06T06:54:05.253Z,13.44
2022-10-06T06:57:08.892Z,13.57
2022-10-06T07:00:13.147Z,13.58
2022-10-06T07:03:38.480Z,13.74
2022-10-06T07:06:42.828Z,13.94
2022-10-06T07:09:46.978Z,14.24
2022-10-06T07:12:52.327Z,14.45
2022-10-06T07:16:13.835Z,14.79
2022-10-06T07:19:57.517Z,15.05
2022-10-06T07:23:19.044Z,15.36
2022-10-06T07:26:21.866Z,15.71
2022-10-06T07:29:26.592Z,16.22
2022-10-06T07:32:31.266Z,16.67
2022-10-06T07:35:34.539Z,17.12
2022-10-06T07:38:37.635Z,17.64
2022-10-06T07:41:40.373Z,18.48
2022-10-06T07:44:43.816Z,21.38
2022-10-06T07:47:47.504Z,27.33
2022-10-06T07:50:52.465Z,33.18
2022-10-06T07:53:56.554Z,36.95
2022-10-06T07:57:00.038Z,40.12
2022-10-06T08:00:05.667Z,42.48
2022-10-06T08:03:18.031Z,44.31
2022-10-06T08:06:23.600Z,44.99
2022-10-06T08:09:26.282Z,45.95
2022-10-06T08:12:37.657Z,46.75
2022-10-06T08:15:40.309Z,47.11
2022-10-06T08:18:48.145Z,47.83
2022-10-06T08:21:50.942Z,47.76
2022-10-06T08:25:05.917Z,47.88
2022-10-06T08:28:13.160Z,48.86
2022-10-06T08:31:18.055Z,48.74
2022-10-06T08:34:21.719Z,47.40
2022-10-06T08:37:26.793Z,44.92
2022-10-06T08:40:29.544Z,42.53
2022-10-06T08:43:33.704Z,40.00
2022-10-06T08:46:45.763Z,37.74
2022-10-06T08:49:52.363Z,35.68
2022-10-06T08:53:15.641Z,34.10
2022-10-06T08:56:31.915Z,33.09
2022-10-06T08:59:36.640Z,32.35
2022-10-06T09:02:46.134Z,31.66
2022-10-06T09:05:48.802Z,31.27
2022-10-06T09:08:58.728Z,31.23
2022-10-06T09:12:14.527Z,30.89
2022-10-06T09:15:23.575Z,30.72
2022-10-06T09:19:03.417Z,30.45
2022-10-06T09:22:00.755Z,30.37
2022-10-06T09:25:20.785Z,30.51
2022-10-06T09:28:24.222Z,30.26
2022-10-06T09:31:32.581Z,29.32
2022-10-06T09:34:39.131Z,29.24
2022-10-06T09:38:08.244Z,29.73
2022-10-06T09:41:13.501Z,30.39
2022-10-06T09:44:27.787Z,30.48
2022-10-06T09:47:34.926Z,29.84
2022-10-06T09:50:37.391Z,28.60
2022-10-06T09:53:41.902Z,28.19
2022-10-06T09:56:47.273Z,27.99
2022-10-06T09:59:52.354Z,28.02
2022-10-06T10:03:04.236Z,27.96
2022-10-06T10:06:09.086Z,27.54
2022-10-06T10:09:22.297Z,27.50
2022-10-06T10:12:28.424Z,27.45
2022-10-06T10:15:38.329Z,26.49
2022-10-06T10:18:46.622Z,25.72
2022-10-06T10:21:49.159Z,25.23
2022-10-06T10:25:10.350Z,25.37
2022-10-06T10:28:29.033Z,25.66
2022-10-06T10:31:56.823Z,26.45
2022-10-06T10:35:21.003Z,27.81
2022-10-06T10:38:26.936Z,28.37
2022-10-06T10:41:46.349Z,29.08
2022-10-06T10:45:02.292Z,29.64
2022-10-06T10:48:16.827Z,30.32
2022-10-06T10:51:40.739Z,29.45
2022-10-06T10:54:49.310Z,28.49
2022-10-06T10:57:56.167Z,28.41
2022-10-06T11:01:07.942Z,28.22
2022-10-06T11:04:13.464Z,27.83
2022-10-06T11:07:39.177Z,27.70
2022-10-06T11:10:50.286Z,26.52
2022-10-06T11:13:56.555Z,25.36
2022-10-06T11:17:44.880Z,24.46
2022-10-06T11:20:58.788Z,24.66
2022-10-06T11:24:17.190Z,24.99
2022-10-06T11:28:02.017Z,25.78
2022-10-06T11:31:32.693Z,26.64
2022-10-06T11:34:35.448Z,26.20
2022-10-06T11:37:50.023Z,26.75
2022-10-06T11:41:09.886Z,27.02
2022-10-06T11:44:29.415Z,26.74
2022-10-06T11:47:36.496Z,26.22
2022-10-06T11:50:42.783Z,25.98
2022-10-06T11:53:45.375Z,26.06
2022-10-06T11:56:49.843Z,25.99
2022-10-06T11:59:57.167Z,26.23
2022-10-06T12:03:34.088Z,26.56
2022-10-06T12:06:42.902Z,26.42
2022-10-06T12:09:49.631Z,25.98
2022-10-06T12:13:31.783Z,25.64
2022-10-06T12:20:26.429Z,25.30
2022-10-06T12:23:47.225Z,25.03
2022-10-06T12:27:01.549Z,24.96
2022-10-06T12:30:30.851Z,24.84
2022-10-06T12:33:39.906Z,24.75
2022-10-06T12:36:45.158Z,24.45
2022-10-06T12:39:48.006Z,24.32
2022-10-06T12:42:55.304Z,24.18
2022-10-06T12:46:08.118Z,24.21
2022-10-06T12:49:40.406Z,24.47
2022-10-06T12:53:08.776Z,24.91
2022-10-06T12:56:28.226Z,24.92
2022-10-06T12:59:33.980Z,24.77
2022-10-06T13:02:36.899Z,24.53
2022-10-06T13:05:39.930Z,24.26
2022-10-06T13:08:42.856Z,24.32
2022-10-06T13:11:45.984Z,24.42
2022-10-06T13:14:48.714Z,24.87
2022-10-06T13:18:08.072Z,25.17
2022-10-06T13:21:16.197Z,25.32
2022-10-06T13:24:24.751Z,25.50
2022-10-06T13:27:27.492Z,25.27
2022-10-06T13:30:38.413Z,25.07
2022-10-06T13:33:43.662Z,25.18
2022-10-06T13:36:52.493Z,25.18
2022-10-06T13:39:56.208Z,25.02
2022-10-06T13:43:01.996Z,24.69
2022-10-06T13:46:11.128Z,24.48
2022-10-06T13:49:21.938Z,24.12
2022-10-06T13:52:35.531Z,24.04
2022-10-06T13:55:39.574Z,24.07
2022-10-06T13:58:42.112Z,24.07
2022-10-06T14:01:49.239Z,24.01
2022-10-06T14:05:26.904Z,23.97
2022-10-06T14:08:29.688Z,23.93
2022-10-06T14:11:32.636Z,23.88
2022-10-06T14:14:35.267Z,23.84
2022-10-06T14:17:38.264Z,23.69
2022-10-06T14:20:46.434Z,23.22
2022-10-06T14:23:54.247Z,22.96
2022-10-06T14:27:02.282Z,22.92
2022-10-06T14:30:05.788Z,22.75
2022-10-06T14:33:08.915Z,22.67
2022-10-06T14:36:16.500Z,22.55
2022-10-06T14:39:20.799Z,22.34
2022-10-06T14:42:24.505Z,22.27
2022-10-06T14:45:27.023Z,22.17
2022-10-06T14:48:29.971Z,22.10
2022-10-06T14:51:36.625Z,22.00
2022-10-06T14:54:39.838Z,21.96
2022-10-06T14:57:42.322Z,21.90
2022-10-06T15:00:45.858Z,21.82
2022-10-06T15:04:00.659Z,21.74
2022-10-06T15:07:22.191Z,21.84
2022-10-06T15:10:24.874Z,21.61
2022-10-06T15:13:27.836Z,21.40
2022-10-06T15:16:33.433Z,21.34
2022-10-06T15:19:36.507Z,21.23
2022-10-06T15:22:38.989Z,21.13
2022-10-06T15:26:11.231Z,21.04
2022-10-06T15:29:14.413Z,20.96
2022-10-06T15:32:17.445Z,20.86
2022-10-06T15:35:19.884Z,20.75
2022-10-06T15:38:22.656Z,20.64
2022-10-06T15:41:25.538Z,20.52
2022-10-06T15:44:32.115Z,20.43
2022-10-06T15:47:35.602Z,20.34
2022-10-06T15:50:39.507Z,20.28
2022-10-06T15:53:45.338Z,20.21
2022-10-06T15:56:50.645Z,20.15
2022-10-06T15:59:53.096Z,20.02
2022-10-06T16:02:59.430Z,19.96
2022-10-06T16:06:05.123Z,19.91
2022-10-06T16:09:12.403Z,19.81
2022-10-06T16:12:21.758Z,19.84
2022-10-06T16:15:24.773Z,19.63
2022-10-06T16:18:31.612Z,19.56
2022-10-06T16:21:34.790Z,19.46
2022-10-06T16:24:37.532Z,19.44
2022-10-06T16:27:40.188Z,19.39
2022-10-06T16:30:43.068Z,19.32
2022-10-06T16:33:46.218Z,19.29
2022-10-06T16:36:48.985Z,19.25
2022-10-06T16:39:52.991Z,19.20
2022-10-06T16:42:55.895Z,19.16
2022-10-06T16:46:07.095Z,19.08
2022-10-06T16:49:10.997Z,19.02
2022-10-06T16:52:13.810Z,18.98
2022-10-06T16:55:16.823Z,18.95
2022-10-06T16:58:21.483Z,18.91
2022-10-06T17:01:27.479Z,18.85
2022-10-06T17:04:30.277Z,18.80
2022-10-06T17:07:34.054Z,18.76
2022-10-06T17:10:36.698Z,18.73
2022-10-06T17:13:42.317Z,18.67
2022-10-06T17:16:46.707Z,18.61
2022-10-06T17:19:50.096Z,18.59
2022-10-06T17:22:52.854Z,18.60
2022-10-06T17:26:19.211Z,18.53
2022-10-06T17:29:22.962Z,18.52
2022-10-06T17:32:25.858Z,18.48
2022-10-06T17:35:28.518Z,18.43
2022-10-06T17:38:32.890Z,18.38
2022-10-06T17:41:38.053Z,18.29
2022-10-06T17:44:41.231Z,18.24
2022-10-06T17:47:44.739Z,18.19
2022-10-06T17:50:56.227Z,18.10
2022-10-06T17:54:01.577Z,18.05
2022-10-06T17:57:05.036Z,18.00
2022-10-06T18:00:09.871Z,17.95
2022-10-06T18:03:14.354Z,17.92
2022-10-06T18:06:17.865Z,17.90
2022-10-06T18:09:21.754Z,17.87
2022-10-06T18:12:24.683Z,17.83
2022-10-06T18:15:27.180Z,17.81
2022-10-06T18:18:31.171Z,17.77
2022-10-06T18:21:37.537Z,17.73
2022-10-06T18:24:40.600Z,17.70
2022-10-06T18:27:43.658Z,17.67
2022-10-06T18:30:50.695Z,17.63
2022-10-06T18:37:16.793Z,17.58
2022-10-06T18:40:19.324Z,17.55
2022-10-06T18:43:22.487Z,17.52
2022-10-06T18:46:44.808Z,17.47
2022-10-06T18:49:47.809Z,17.41
2022-10-06T18:52:50.331Z,17.33
2022-10-06T18:55:53.306Z,17.30
2022-10-06T18:58:58.650Z,17.24
2022-10-06T19:02:02.359Z,17.21
2022-10-06T19:05:05.374Z,17.17
2022-10-06T19:08:09.418Z,17.15
2022-10-06T19:11:30.489Z,17.11
2022-10-06T19:14:36.652Z,17.09
2022-10-06T19:17:40.754Z,17.07
2022-10-06T19:20:50.876Z,17.06
2022-10-06T19:23:53.309Z,17.03
2022-10-06T19:26:57.222Z,16.99
2022-10-06T19:29:59.654Z,16.95
2022-10-06T19:33:02.707Z,16.93
2022-10-06T19:36:06.906Z,16.89
2022-10-06T19:39:12.413Z,16.84
2022-10-06T19:42:35.522Z,16.82
2022-10-06T19:45:38.618Z,16.81
2022-10-06T19:48:41.549Z,16.80
2022-10-06T19:51:44.962Z,16.79
2022-10-06T19:54:47.428Z,16.77
2022-10-06T19:57:52.533Z,16.75
2022-10-06T20:00:54.999Z,16.68
2022-10-06T20:03:58.720Z,16.65
2022-10-06T20:07:01.872Z,16.62
2022-10-06T20:10:05.030Z,16.57
2022-10-06T20:13:07.538Z,16.57
2022-10-06T20:16:13.590Z,16.55
2022-10-06T20:19:17.258Z,16.54
2022-10-06T20:22:20.203Z,16.52
2022-10-06T20:25:22.632Z,16.52
2022-10-06T20:28:25.744Z,16.49
2022-10-06T20:31:30.821Z,16.47
2022-10-06T20:34:33.892Z,16.46
2022-10-06T20:37:38.352Z,16.42
2022-10-06T20:40:49.230Z,16.40
2022-10-06T20:43:53.976Z,16.36
2022-10-06T20:46:56.878Z,16.36
2022-10-06T20:49:59.290Z,16.33
2022-10-06T20:53:02.243Z,16.28
2022-10-06T20:56:05.704Z,16.25
2022-10-06T20:59:12.183Z,16.23
2022-10-06T21:02:14.762Z,16.18
2022-10-06T21:05:17.577Z,16.14
2022-10-06T21:08:19.906Z,16.08
2022-10-06T21:11:24.878Z,16.06
2022-10-06T21:14:27.347Z,16.03
2022-10-06T21:17:30.311Z,16.01
2022-10-06T21:20:32.950Z,15.98
2022-10-06T21:23:38.772Z,15.94
2022-10-06T21:26:42.431Z,15.92
2022-10-06T21:29:45.454Z,15.88
2022-10-06T21:32:47.858Z,15.87
2022-10-06T21:36:04.998Z,15.85
2022-10-06T21:39:07.642Z,15.82
2022-10-06T21:42:11.082Z,15.77
2022-10-06T21:45:13.639Z,15.74
2022-10-06T21:48:18.225Z,15.72
2022-10-06T21:51:23.034Z,15.70
2022-10-06T21:54:26.074Z,15.66
2022-10-06T21:57:28.540Z,15.62
2022-10-06T22:00:31.427Z,15.61
2022-10-06T22:03:38.733Z,15.59
2022-10-06T22:06:42.738Z,15.56
2022-10-06T22:09:45.532Z,15.52
2022-10-06T22:12:49.065Z,15.52
2022-10-06T22:15:51.965Z,15.51
2022-10-06T22:18:56.018Z,15.49
2022-10-06T22:21:58.847Z,15.48
2022-10-06T22:25:01.611Z,15.46
2022-10-06T22:28:04.375Z,15.45
2022-10-06T22:31:08.638Z,15.40
2022-10-06T22:34:13.326Z,15.37
2022-10-06T22:37:16.697Z,15.38
2022-10-06T22:40:19.402Z,15.36
2022-10-06T22:43:22.308Z,15.34
2022-10-06T22:46:31.110Z,15.34
2022-10-06T22:49:33.798Z,15.33
2022-10-06T22:52:36.494Z,15.31
2022-10-06T22:55:39.121Z,15.27
2022-10-06T22:58:42.913Z,15.25
2022-10-06T23:01:45.610Z,15.23
2022-10-06T23:04:48.304Z,15.21
2022-10-06T23:07:51.451Z,15.18
2022-10-06T23:10:54.220Z,15.16
2022-10-06T23:13:56.898Z,15.12
2022-10-06T23:17:00.592Z,15.11
2022-10-06T23:20:04.433Z,15.10
2022-10-06T23:23:07.198Z,15.08
2022-10-06T23:26:12.346Z,15.04
2022-10-06T23:29:15.075Z,15.01
2022-10-06T23:32:17.880Z,14.98
2022-10-06T23:35:20.734Z,14.97
2022-10-06T23:38:23.626Z,14.95
2022-10-06T23:41:26.339Z,14.91
2022-10-06T23:44:29.283Z,14.87
2022-10-06T23:47:31.948Z,14.85
2022-10-06T23:50:34.678Z,14.82
2022-10-06T23:53:37.850Z,14.76
2022-10-06T23:56:40.510Z,14.73
2022-10-06T23:59:43.182Z,14.71
